This demonstration page uses our WeatherBlox Daily Observations layout. Learn more.

Left ArrowRight Arrow

36.17497, -115.13722

Hourly Observations for October 29, 2016

Temp ( °F °C ) Dew Point ( °F °C ) Humidity (%) Winds ( mph kmh ) Pressure ( in mb ) Visibility ( mi km ) Precip ( " mm )
12:53 am 00:53 Clear 67 19.4 50 10 55 55 S 8 13 29.96 1015 10 16.0934 0 0
1:53 am 01:53 Clear 66 18.9 50 10 56 56 Calm 29.96 1015 10 16.0934 0 0
2:53 am 02:53 Clear 65 18.3 50 10 59 59 NNW 5 7 29.98 1015 10 16.0934 0 0
3:53 am 03:53 Clear 62 16.7 50 10 65 65 NW 6 9 29.99 1016 10 16.0934 0 0
4:53 am 04:53 Clear 62 16.7 50 10 65 65 N 3 6 30 1016 10 16.0934 0 0
5:53 am 05:53 Clear 59 15 49 9.4 69 69 NW 5 7 30.02 1017 10 16.0934 0 0
6:53 am 06:53 Clear 59 15 49 9.4 69 69 NNW 5 7 30.02 1017 10 16.0934 0 0
7:53 am 07:53 Partly Cloudy 60 15.6 50 10 70 70 NNW 6 9 30.04 1017 10 16.0934 0 0
8:53 am 08:53 Sunny 66 18.9 50 10 56 56 N 3 6 30.06 1018 10 16.0934 0 0
9:53 am 09:53 Partly Cloudy 68 20 50 10 53 53 E 3 6 30.06 1018 10 16.0934 0 0
10:53 am 10:53 Mostly Cloudy 69 20.6 51 10.6 53 53 ESE 5 7 30.06 1018 10 16.0934 0 0
11:53 am 11:53 Sunny 74 23.3 52 11.1 46 46 ESE 6 9 30.04 1017 10 16.0934 0 0
12:53 pm 12:53 Sunny 76 24.4 51 10.6 42 42 SE 6 9 30.02 1017 10 16.0934 0 0
1:53 pm 13:53 Mostly Cloudy 79 26.1 51 10.6 38 38 SE 9 15 29.99 1016 10 16.0934 0 0
2:53 pm 14:53 Sunny 81 27.2 51 10.6 35 35 ESE 8 13 29.98 1015 10 16.0934 0 0
3:53 pm 15:53 Mostly Sunny 82 27.8 50 10 33 33 SSE 8 13 29.98 1015 10 16.0934 0 0
4:53 pm 16:53 Sunny 83 28.3 50 10 32 32 SSW 14 22 29.97 1015 10 16.0934 0 0
5:53 pm 17:53 Clear 81 27.2 50 10 34 34 SW 8 13 29.98 1015 10 16.0934 0 0
6:53 pm 18:53 Clear 79 26.1 50 10 36 36 SSW 3 6 30 1016 10 16.0934 0 0
7:53 pm 19:53 Clear 78 25.6 50 10 37 37 W 3 6 30 1016 10 16.0934 0 0
8:53 pm 20:53 Clear 75 23.9 51 10.6 43 43 Calm 30 1016 10 16.0934 0 0
9:53 pm 21:53 Clear 74 23.3 51 10.6 45 45 Calm 30.01 1016 10 16.0934 0 0
10:53 pm 22:53 Mostly Clear 73 22.8 52 11.1 48 48 SE 5 7 30.01 1016 10 16.0934 0 0
11:53 pm 23:53 Clear 70 21.1 52 11.1 53 53 Calm 30 1016 10 16.0934 0 0

Powered by AerisWeather